createdAt,value
2017-11-09T00:00:57.677Z,150.68
2017-11-09T00:03:25.344Z,143.82
2017-11-09T00:05:58.735Z,168.45
2017-11-09T00:08:26.402Z,159.05
2017-11-09T00:10:54.034Z,155.30
2017-11-09T00:13:21.659Z,161.48
2017-11-09T00:15:49.326Z,147.35
2017-11-09T00:18:16.967Z,144.52
2017-11-09T00:20:44.630Z,160.30
2017-11-09T00:23:12.260Z,150.15
2017-11-09T00:25:39.890Z,160.40
2017-11-09T00:28:07.552Z,160.63
2017-11-09T00:30:35.183Z,148.65
2017-11-09T00:33:02.837Z,149.38
2017-11-09T00:35:30.475Z,169.73
2017-11-09T00:37:58.118Z,155.35
2017-11-09T00:40:25.774Z,157.57
2017-11-09T00:42:53.407Z,135.07
2017-11-09T00:45:21.067Z,159.30
2017-11-09T00:47:48.691Z,153.85
2017-11-09T00:50:16.327Z,172.07
2017-11-09T00:52:44.755Z,143.57
2017-11-09T00:55:12.397Z,164.70
2017-11-09T00:57:40.055Z,128.12
2017-11-09T01:00:07.690Z,181.80
2017-11-09T01:02:35.328Z,171.18
2017-11-09T01:05:02.999Z,179.27
2017-11-09T01:07:30.621Z,157.15
2017-11-09T01:09:58.291Z,168.43
2017-11-09T01:12:25.970Z,178.57
2017-11-09T01:14:54.379Z,170.20
2017-11-09T01:17:22.046Z,181.75
2017-11-09T01:19:49.690Z,160.23
2017-11-09T01:22:17.368Z,141.95
2017-11-09T01:24:45.777Z,139.70
2017-11-09T01:27:13.412Z,185.02
2017-11-09T01:29:41.076Z,157.07
2017-11-09T01:32:08.716Z,130.00
2017-11-09T01:34:36.473Z,142.70
2017-11-09T01:37:04.102Z,162.27
2017-11-09T01:39:31.752Z,164.15
2017-11-09T01:41:59.428Z,170.68
2017-11-09T01:44:27.408Z,175.15
2017-11-09T01:46:55.855Z,159.57
2017-11-09T01:49:23.486Z,144.35
2017-11-09T01:51:51.123Z,147.48
2017-11-09T01:54:18.782Z,126.57
2017-11-09T01:56:46.561Z,154.35
2017-11-09T01:59:14.233Z,142.93
2017-11-09T02:01:41.882Z,131.43
2017-11-09T02:04:09.510Z,129.90
2017-11-09T02:06:37.954Z,147.18
2017-11-09T02:09:05.586Z,143.02
2017-11-09T02:11:33.242Z,133.60
2017-11-09T02:14:00.881Z,157.15
2017-11-09T02:16:28.519Z,161.77
2017-11-09T02:18:56.192Z,145.82
2017-11-09T02:21:23.837Z,158.23
2017-11-09T02:23:51.599Z,181.70
2017-11-09T02:26:20.009Z,154.45
2017-11-09T02:28:47.644Z,111.95
2017-11-09T02:31:15.303Z,143.02
2017-11-09T02:33:42.935Z,122.93
2017-11-09T02:36:10.614Z,122.97
2017-11-09T02:38:38.240Z,151.40
2017-11-09T02:41:05.882Z,172.75
2017-11-09T02:43:33.543Z,134.40
2017-11-09T02:46:01.237Z,153.00
2017-11-09T02:48:28.892Z,174.85
2017-11-09T02:50:56.536Z,162.07
2017-11-09T02:53:24.935Z,168.15
2017-11-09T02:55:52.591Z,160.93
2017-11-09T02:58:20.219Z,134.02
2017-11-09T03:00:47.873Z,173.25
2017-11-09T03:03:15.638Z,156.12
2017-11-09T03:05:43.342Z,167.48
2017-11-09T03:08:11.737Z,145.30
2017-11-09T03:10:39.365Z,128.73
2017-11-09T03:13:07.028Z,151.65
2017-11-09T03:15:34.667Z,145.32
2017-11-09T03:18:02.325Z,151.07
2017-11-09T03:20:30.024Z,124.87
2017-11-09T03:22:57.660Z,117.07
2017-11-09T03:25:25.322Z,120.55
2017-11-09T03:27:53.816Z,125.53
2017-11-09T03:30:21.493Z,125.75
2017-11-09T03:32:49.139Z,124.50
2017-11-09T03:35:16.802Z,122.20
2017-11-09T03:37:44.469Z,136.65
2017-11-09T03:40:12.109Z,121.45
2017-11-09T03:42:39.771Z,122.57
2017-11-09T03:45:07.397Z,113.85
2017-11-09T03:47:35.039Z,119.93
2017-11-09T03:50:02.696Z,110.63
2017-11-09T03:52:30.329Z,151.10
2017-11-09T03:54:57.993Z,125.68
2017-11-09T03:57:25.627Z,121.82
2017-11-09T03:59:53.250Z,113.60
2017-11-09T04:02:20.907Z,127.40
2017-11-09T04:04:48.549Z,120.03
2017-11-09T04:07:16.212Z,113.62
2017-11-09T04:09:43.848Z,146.27
2017-11-09T04:12:11.481Z,124.30
2017-11-09T04:14:39.142Z,150.73
2017-11-09T04:17:06.779Z,149.68
2017-11-09T04:19:34.428Z,128.15
2017-11-09T04:22:02.056Z,128.00
2017-11-09T04:24:29.697Z,125.15
2017-11-09T04:26:57.375Z,116.53
2017-11-09T04:29:25.328Z,116.30
2017-11-09T04:31:52.992Z,115.78
2017-11-09T04:34:20.653Z,119.53
2017-11-09T04:36:48.287Z,136.70
2017-11-09T04:39:15.951Z,141.93
2017-11-09T04:41:44.359Z,120.68
2017-11-09T04:44:12.024Z,135.35
2017-11-09T04:46:39.658Z,145.65
2017-11-09T04:49:07.291Z,119.15
2017-11-09T04:51:34.959Z,119.50
2017-11-09T04:54:02.578Z,154.02
2017-11-09T04:56:30.255Z,158.50
2017-11-09T04:58:57.897Z,156.30
2017-11-09T05:01:25.531Z,128.65
2017-11-09T05:03:53.571Z,122.68
2017-11-09T05:06:21.199Z,145.95
2017-11-09T05:08:49.636Z,160.10
2017-11-09T05:11:17.882Z,151.63
2017-11-09T05:13:46.098Z,143.23
2017-11-09T05:16:13.763Z,136.43
2017-11-09T05:18:41.402Z,123.40
2017-11-09T05:21:09.073Z,124.43
2017-11-09T05:23:36.725Z,135.40
2017-11-09T05:26:04.370Z,143.98
2017-11-09T05:28:32.028Z,134.45
2017-11-09T05:30:59.667Z,121.55
2017-11-09T05:33:27.331Z,142.35
2017-11-09T05:35:54.972Z,148.10
2017-11-09T05:38:22.607Z,138.88
2017-11-09T05:41:05.031Z,153.05
2017-11-09T05:43:33.464Z,147.25
2017-11-09T05:46:01.137Z,103.43
2017-11-09T05:48:28.763Z,132.80
2017-11-09T05:50:56.400Z,140.48
2017-11-09T05:53:24.060Z,153.87
2017-11-09T05:55:52.154Z,115.47
2017-11-09T05:58:20.591Z,107.22
2017-11-09T06:00:48.231Z,123.80
2017-11-09T06:03:15.854Z,137.77
2017-11-09T06:05:43.540Z,144.15
2017-11-09T06:08:11.167Z,145.85
2017-11-09T06:10:38.825Z,125.22
2017-11-09T06:13:06.465Z,103.00
2017-11-09T06:15:34.090Z,144.60
2017-11-09T06:18:01.752Z,142.90
2017-11-09T06:20:29.395Z,153.35
2017-11-09T06:22:57.068Z,137.68
2017-11-09T06:25:25.461Z,148.57
2017-11-09T06:27:53.083Z,120.35
2017-11-09T06:30:21.507Z,132.60
2017-11-09T06:32:49.134Z,137.45
2017-11-09T06:35:16.798Z,141.62
2017-11-09T06:37:44.423Z,147.90
2017-11-09T06:40:12.058Z,135.63
2017-11-09T06:42:39.722Z,142.45
2017-11-09T06:45:07.364Z,110.37
2017-11-09T06:47:35.596Z,110.45
2017-11-09T06:50:03.989Z,138.23
2017-11-09T06:52:31.623Z,132.32
2017-11-09T06:54:59.283Z,142.18
2017-11-09T06:57:26.911Z,154.50
2017-11-09T06:59:54.568Z,148.73
2017-11-09T07:02:22.195Z,118.95
2017-11-09T07:04:50.664Z,115.47
2017-11-09T07:07:18.334Z,121.90
2017-11-09T07:09:45.962Z,132.40
2017-11-09T07:12:13.637Z,148.95
2017-11-09T07:14:41.642Z,119.60
2017-11-09T07:17:09.268Z,124.85
2017-11-09T07:19:36.924Z,117.82
2017-11-09T07:22:04.552Z,139.73
2017-11-09T07:24:32.219Z,142.02
2017-11-09T07:26:59.852Z,116.05
2017-11-09T07:29:27.482Z,114.15
2017-11-09T07:31:55.161Z,108.80
2017-11-09T07:34:22.790Z,126.05
2017-11-09T07:36:50.470Z,107.15
2017-11-09T07:39:18.876Z,138.77
2017-11-09T07:41:46.508Z,133.45
2017-11-09T07:44:14.168Z,120.00
2017-11-09T07:46:41.804Z,127.18
2017-11-09T07:49:09.470Z,115.93
2017-11-09T07:51:37.097Z,120.93
2017-11-09T07:54:04.817Z,111.32
2017-11-09T07:56:33.248Z,109.18
2017-11-09T07:59:00.878Z,144.65
2017-11-09T08:01:28.537Z,107.80
2017-11-09T08:03:56.170Z,103.50
2017-11-09T08:06:23.801Z,99.03
2017-11-09T08:08:51.466Z,120.30
2017-11-09T08:11:19.092Z,120.00
2017-11-09T08:13:46.744Z,107.35
2017-11-09T08:16:14.368Z,97.07
2017-11-09T08:18:42.004Z,121.47
2017-11-09T08:21:10.439Z,125.12
2017-11-09T08:23:38.067Z,115.12
2017-11-09T08:26:10.779Z,113.45
2017-11-09T08:28:41.462Z,141.90
2017-11-09T08:31:10.364Z,116.60
2017-11-09T08:33:39.932Z,124.53
2017-11-09T08:36:07.567Z,105.25
2017-11-09T08:38:35.227Z,110.95
2017-11-09T08:41:02.865Z,114.37
2017-11-09T08:43:30.529Z,137.90
2017-11-09T08:45:58.158Z,113.50
2017-11-09T08:48:25.805Z,115.93
2017-11-09T08:50:53.468Z,102.03
2017-11-09T08:53:21.115Z,102.30
2017-11-09T08:55:48.777Z,96.20
2017-11-09T08:58:17.170Z,117.53
2017-11-09T09:00:44.808Z,134.70
2017-11-09T09:03:12.463Z,145.20
2017-11-09T09:05:40.088Z,115.62
2017-11-09T09:08:07.862Z,106.63
2017-11-09T09:10:35.498Z,106.85
2017-11-09T09:13:03.124Z,134.23
2017-11-09T09:15:31.563Z,118.07
2017-11-09T09:17:59.202Z,127.45
2017-11-09T09:20:27.647Z,130.07
2017-11-09T09:22:55.277Z,134.35
2017-11-09T09:25:26.526Z,130.32
2017-11-09T09:27:54.770Z,120.65
2017-11-09T09:30:22.433Z,135.30
2017-11-09T09:33:02.887Z,138.65
2017-11-09T09:35:35.208Z,138.85
2017-11-09T09:38:07.599Z,144.10
2017-11-09T09:40:35.778Z,148.32
2017-11-09T09:43:03.492Z,120.05
2017-11-09T09:45:31.124Z,121.65
2017-11-09T09:47:58.753Z,147.25
2017-11-09T09:50:26.419Z,148.32
2017-11-09T09:52:54.056Z,146.90
2017-11-09T09:55:21.736Z,151.75
2017-11-09T09:57:49.379Z,124.07
2017-11-09T10:00:17.007Z,130.25
2017-11-09T10:02:44.678Z,123.05
2017-11-09T10:05:12.321Z,145.27
2017-11-09T10:07:39.985Z,143.50
2017-11-09T10:10:07.840Z,140.82
2017-11-09T10:12:35.505Z,113.60
2017-11-09T10:15:03.163Z,122.40
2017-11-09T10:17:31.564Z,106.32
2017-11-09T10:19:59.227Z,123.07
2017-11-09T10:22:26.893Z,111.80
2017-11-09T10:24:54.523Z,118.00
2017-11-09T10:27:22.179Z,126.87
2017-11-09T10:29:49.809Z,140.25
2017-11-09T10:32:17.848Z,126.55
2017-11-09T10:34:45.475Z,125.38
2017-11-09T10:37:13.105Z,116.25
2017-11-09T10:39:41.524Z,108.05
2017-11-09T10:42:09.225Z,110.28
2017-11-09T10:44:36.895Z,116.95
2017-11-09T10:47:04.525Z,139.15
2017-11-09T10:49:32.162Z,126.45
2017-11-09T10:51:59.823Z,117.62
2017-11-09T10:54:27.463Z,120.57
2017-11-09T10:56:55.890Z,134.20
2017-11-09T10:59:23.524Z,132.50
2017-11-09T11:01:51.161Z,107.03
2017-11-09T11:04:18.818Z,113.68
2017-11-09T11:06:46.461Z,122.53
2017-11-09T11:09:14.119Z,117.20
2017-11-09T11:11:41.750Z,111.80
2017-11-09T11:14:09.389Z,141.60
2017-11-09T11:16:37.058Z,145.82
2017-11-09T11:19:04.685Z,152.18
2017-11-09T11:21:32.350Z,143.37
2017-11-09T11:24:00.006Z,153.00
2017-11-09T11:26:27.638Z,140.40
2017-11-09T11:28:55.309Z,140.88
2017-11-09T11:31:22.938Z,151.98
2017-11-09T11:33:50.605Z,146.07
2017-11-09T11:36:18.237Z,120.97
2017-11-09T11:38:45.869Z,118.30
2017-11-09T11:41:13.536Z,124.12
2017-11-09T11:43:41.159Z,146.70
2017-11-09T11:46:08.828Z,121.70
2017-11-09T11:48:36.481Z,136.40
2017-11-09T11:51:04.236Z,128.27
2017-11-09T11:53:31.891Z,120.87
2017-11-09T11:56:00.364Z,154.27
2017-11-09T11:58:28.808Z,134.10
2017-11-09T12:00:56.437Z,133.50
2017-11-09T12:03:24.066Z,130.43
2017-11-09T12:05:51.733Z,134.27
2017-11-09T12:08:19.374Z,133.07
2017-11-09T12:10:47.204Z,109.05
2017-11-09T12:13:14.855Z,115.32
2017-11-09T12:15:42.525Z,121.70
2017-11-09T12:18:10.149Z,96.72
2017-11-09T12:20:37.801Z,109.80
2017-11-09T12:23:06.900Z,99.00
2017-11-09T12:25:34.533Z,107.87
2017-11-09T12:28:02.192Z,106.25
2017-11-09T12:30:29.859Z,98.05
2017-11-09T12:32:57.485Z,95.80
2017-11-09T12:35:25.155Z,122.80
2017-11-09T12:37:53.566Z,106.40
2017-11-09T12:40:21.239Z,105.28
2017-11-09T12:42:48.877Z,120.85
2017-11-09T12:45:16.505Z,119.43
2017-11-09T12:47:44.179Z,103.32
2017-11-09T12:50:11.816Z,128.45
2017-11-09T12:52:39.488Z,133.82
2017-11-09T12:55:07.129Z,111.60
2017-11-09T12:57:34.763Z,122.43
2017-11-09T13:00:02.430Z,115.03
2017-11-09T13:02:30.848Z,116.60
2017-11-09T13:04:58.509Z,123.97
2017-11-09T13:07:26.148Z,122.62
2017-11-09T13:09:53.780Z,124.45
2017-11-09T13:12:21.445Z,120.03
2017-11-09T13:14:49.073Z,101.43
2017-11-09T13:17:16.740Z,129.10
2017-11-09T13:19:44.430Z,106.95
2017-11-09T13:22:12.055Z,120.07
2017-11-09T13:24:39.724Z,105.85
2017-11-09T13:27:08.139Z,116.18
2017-11-09T13:29:35.807Z,124.22
2017-11-09T13:32:03.441Z,127.72
2017-11-09T13:34:32.016Z,118.68
2017-11-09T13:36:59.675Z,129.85
2017-11-09T13:39:27.317Z,124.62
2017-11-09T13:41:54.987Z,129.90
2017-11-09T13:44:23.567Z,123.78
2017-11-09T13:46:51.955Z,145.32
2017-11-09T13:49:19.624Z,126.30
2017-11-09T13:51:47.251Z,119.15
2017-11-09T13:54:14.963Z,105.45
2017-11-09T13:56:42.601Z,117.25
2017-11-09T13:59:10.252Z,136.68
2017-11-09T14:01:37.916Z,120.45
2017-11-09T14:04:06.306Z,130.30
2017-11-09T14:06:33.963Z,112.05
2017-11-09T14:09:01.620Z,121.62
2017-11-09T14:11:29.256Z,120.10
2017-11-09T14:13:56.918Z,116.25
2017-11-09T14:16:24.572Z,124.07
2017-11-09T14:18:52.251Z,121.25
2017-11-09T14:21:20.646Z,132.93
2017-11-09T14:23:48.278Z,106.10
2017-11-09T14:26:16.705Z,103.47
2017-11-09T14:28:44.335Z,122.78
2017-11-09T14:31:12.002Z,123.80
2017-11-09T14:33:39.632Z,129.80
2017-11-09T14:36:07.322Z,113.70
2017-11-09T14:38:36.535Z,120.10
2017-11-09T14:41:04.204Z,117.05
2017-11-09T14:43:31.868Z,107.40
2017-11-09T14:46:00.240Z,115.62
2017-11-09T14:48:28.999Z,111.85
2017-11-09T14:50:56.728Z,88.10
2017-11-09T14:53:24.780Z,101.50
2017-11-09T14:55:52.424Z,93.47
2017-11-09T14:58:20.047Z,98.40
2017-11-09T15:00:47.699Z,104.95
2017-11-09T15:03:15.359Z,95.00
2017-11-09T15:05:42.983Z,100.40
2017-11-09T15:08:10.646Z,123.22
2017-11-09T15:10:38.267Z,95.97
2017-11-09T15:13:06.671Z,110.37
2017-11-09T15:15:40.972Z,107.40
2017-11-09T15:18:08.603Z,97.97
2017-11-09T15:20:36.266Z,107.75
2017-11-09T15:23:03.891Z,98.12
2017-11-09T15:25:31.579Z,102.60
2017-11-09T15:27:59.248Z,104.65
2017-11-09T15:30:26.877Z,97.88
2017-11-09T15:32:54.535Z,86.25
2017-11-09T15:35:22.160Z,87.72
2017-11-09T15:37:49.824Z,100.07
2017-11-09T15:40:17.471Z,103.22
2017-11-09T15:42:45.159Z,97.40
2017-11-09T15:45:13.609Z,88.60
2017-11-09T15:47:41.999Z,92.05
2017-11-09T15:50:09.651Z,98.40
2017-11-09T15:52:37.295Z,82.50
2017-11-09T15:55:04.960Z,92.80
2017-11-09T15:57:32.590Z,82.65
2017-11-09T16:00:00.240Z,86.72
2017-11-09T16:02:28.019Z,94.00
2017-11-09T16:04:55.771Z,85.07
2017-11-09T16:07:23.480Z,89.07
2017-11-09T16:09:51.110Z,88.25
2017-11-09T16:12:18.787Z,93.95
2017-11-09T16:14:46.443Z,85.15
2017-11-09T16:17:14.191Z,95.55
2017-11-09T16:19:41.978Z,106.65
2017-11-09T16:22:11.128Z,105.50
2017-11-09T16:24:38.755Z,97.28
2017-11-09T16:27:06.425Z,109.78
2017-11-09T16:29:34.155Z,101.65
2017-11-09T16:32:01.824Z,103.10
2017-11-09T16:34:29.699Z,94.20
2017-11-09T16:36:58.155Z,107.55
2017-11-09T16:39:25.776Z,102.22
2017-11-09T16:41:53.487Z,106.25
2017-11-09T16:44:21.196Z,92.25
2017-11-09T16:46:49.010Z,85.82
2017-11-09T16:49:16.704Z,89.03
2017-11-09T16:51:44.407Z,104.25
2017-11-09T16:54:12.124Z,98.28
2017-11-09T16:56:42.790Z,87.78
2017-11-09T16:59:10.537Z,87.07
2017-11-09T17:01:38.199Z,92.37
2017-11-09T17:04:05.828Z,88.20
2017-11-09T17:06:33.483Z,85.10
2017-11-09T17:09:01.105Z,86.28
2017-11-09T17:11:28.731Z,91.82
2017-11-09T17:13:56.398Z,96.30
2017-11-09T17:16:24.053Z,89.10
2017-11-09T17:18:51.703Z,92.60
2017-11-09T17:21:19.331Z,83.03
2017-11-09T17:23:46.953Z,74.50
2017-11-09T17:26:15.384Z,83.68
2017-11-09T17:28:43.043Z,86.22
2017-11-09T17:31:10.760Z,79.00
2017-11-09T17:33:38.420Z,81.43
2017-11-09T17:36:06.042Z,97.15
2017-11-09T17:38:33.713Z,88.07
2017-11-09T17:41:01.906Z,80.47
2017-11-09T17:43:30.359Z,85.10
2017-11-09T17:45:58.800Z,84.32
2017-11-09T17:48:26.453Z,79.25
2017-11-09T17:50:54.975Z,77.65
2017-11-09T17:53:22.607Z,80.32
2017-11-09T17:55:50.274Z,78.22
2017-11-09T17:58:17.908Z,70.75
2017-11-09T18:00:45.526Z,81.30
2017-11-09T18:03:13.202Z,92.05
2017-11-09T18:05:40.827Z,84.30
2017-11-09T18:08:08.480Z,87.75
2017-11-09T18:10:36.879Z,69.28
2017-11-09T18:13:04.517Z,82.12
2017-11-09T18:15:32.180Z,73.20
2017-11-09T18:17:59.800Z,73.20
2017-11-09T18:20:27.461Z,76.90
2017-11-09T18:23:02.707Z,68.55
2017-11-09T18:25:30.367Z,73.12
2017-11-09T18:27:58.000Z,75.28
2017-11-09T18:30:25.746Z,67.90
2017-11-09T18:32:53.538Z,76.28
2017-11-09T18:35:21.955Z,69.20
2017-11-09T18:37:49.616Z,79.65
2017-11-09T18:40:17.235Z,64.20
2017-11-09T18:42:44.869Z,67.60
2017-11-09T18:45:12.527Z,66.12
2017-11-09T18:47:40.151Z,69.60
2017-11-09T18:50:08.575Z,83.65
2017-11-09T18:52:36.207Z,75.05
2017-11-09T18:55:03.823Z,78.57
2017-11-09T18:57:31.475Z,81.63
2017-11-09T18:59:59.100Z,72.82
2017-11-09T19:02:27.540Z,69.82
2017-11-09T19:04:55.200Z,70.68
2017-11-09T19:07:24.029Z,83.87
2017-11-09T19:09:51.768Z,69.10
2017-11-09T19:12:19.421Z,75.18
2017-11-09T19:14:47.475Z,87.68
2017-11-09T19:17:15.967Z,83.80
2017-11-09T19:19:43.599Z,69.15
2017-11-09T19:22:11.231Z,82.60
2017-11-09T19:24:38.897Z,70.30
2017-11-09T19:27:06.536Z,67.72
2017-11-09T19:29:34.156Z,93.93
2017-11-09T19:32:01.833Z,86.57
2017-11-09T19:34:29.468Z,80.53
2017-11-09T19:36:57.100Z,75.60
2017-11-09T19:39:24.764Z,79.75
2017-11-09T19:41:52.400Z,77.07
2017-11-09T19:44:20.030Z,79.15
2017-11-09T19:46:47.700Z,73.15
2017-11-09T19:49:15.325Z,74.85
2017-11-09T19:51:42.966Z,78.18
2017-11-09T19:54:10.627Z,72.37
2017-11-09T19:56:38.268Z,78.60
2017-11-09T19:59:05.894Z,77.68
2017-11-09T20:01:33.583Z,77.22
2017-11-09T20:04:01.215Z,80.65
2017-11-09T20:06:28.841Z,76.50
2017-11-09T20:08:56.494Z,69.80
2017-11-09T20:11:24.120Z,71.70
2017-11-09T20:13:52.517Z,69.53
2017-11-09T20:16:20.181Z,74.95
2017-11-09T20:18:47.835Z,73.82
2017-11-09T20:21:15.472Z,78.00
2017-11-09T20:23:43.127Z,69.45
2017-11-09T20:26:11.307Z,71.62
2017-11-09T20:28:38.934Z,78.57
2017-11-09T20:31:06.712Z,72.07
2017-11-09T20:33:34.353Z,63.90
2017-11-09T20:36:01.990Z,75.50
2017-11-09T20:38:29.680Z,74.80
2017-11-09T20:40:57.307Z,75.65
2017-11-09T20:43:25.733Z,67.37
2017-11-09T20:45:53.360Z,78.82
2017-11-09T20:48:21.147Z,68.85
2017-11-09T20:50:49.771Z,77.47
2017-11-09T20:53:17.396Z,75.82
2017-11-09T20:55:45.834Z,74.25
2017-11-09T20:58:13.464Z,77.32
2017-11-09T21:00:41.250Z,71.03
2017-11-09T21:03:09.724Z,77.60
2017-11-09T21:05:37.367Z,73.40
2017-11-09T21:08:05.814Z,76.78
2017-11-09T21:10:34.201Z,78.45
2017-11-09T21:13:02.590Z,79.37
2017-11-09T21:15:30.240Z,68.87
2017-11-09T21:17:57.877Z,67.35
2017-11-09T21:20:25.540Z,78.15
2017-11-09T21:22:53.165Z,71.50
2017-11-09T21:25:20.792Z,73.12
2017-11-09T21:27:49.227Z,72.40
2017-11-09T21:30:16.869Z,70.40
2017-11-09T21:32:44.524Z,71.78
2017-11-09T21:35:12.217Z,76.07
2017-11-09T21:37:39.843Z,74.55
2017-11-09T21:40:08.260Z,69.80
2017-11-09T21:42:35.879Z,69.72
2017-11-09T21:45:03.549Z,65.97
2017-11-09T21:47:31.243Z,70.10
2017-11-09T21:49:59.635Z,75.30
2017-11-09T21:52:27.297Z,69.30
2017-11-09T21:54:54.926Z,64.43
2017-11-09T21:57:22.597Z,68.55
2017-11-09T21:59:50.235Z,77.75
2017-11-09T22:02:17.874Z,68.53
2017-11-09T22:04:45.533Z,65.85
2017-11-09T22:07:13.163Z,69.97
2017-11-09T22:09:40.855Z,60.20
2017-11-09T22:12:08.486Z,69.72
2017-11-09T22:14:36.271Z,68.75
2017-11-09T22:17:04.698Z,61.08
2017-11-09T22:19:32.320Z,71.25
2017-11-09T22:21:59.975Z,72.15
2017-11-09T22:24:27.638Z,69.93
2017-11-09T22:26:55.299Z,61.13
2017-11-09T22:29:23.105Z,61.13
2017-11-09T22:31:50.935Z,64.78
2017-11-09T22:34:19.522Z,67.62
2017-11-09T22:36:47.140Z,63.78
2017-11-09T22:39:15.540Z,69.25
2017-11-09T22:41:43.211Z,63.10
2017-11-09T22:44:10.881Z,65.22
2017-11-09T22:46:42.179Z,64.85
2017-11-09T22:49:09.803Z,58.65
2017-11-09T22:51:37.895Z,63.80
2017-11-09T22:54:05.543Z,60.12
2017-11-09T22:56:33.187Z,69.20
2017-11-09T22:59:00.853Z,57.97
2017-11-09T23:01:28.627Z,56.80
2017-11-09T23:03:57.036Z,63.42
2017-11-09T23:06:24.686Z,61.83
2017-11-09T23:08:52.329Z,56.55
2017-11-09T23:11:19.997Z,62.95
2017-11-09T23:13:47.628Z,64.15
2017-11-09T23:16:15.252Z,65.00
2017-11-09T23:18:44.730Z,61.50
2017-11-09T23:21:12.506Z,60.53
2017-11-09T23:23:40.186Z,60.50
2017-11-09T23:26:07.807Z,61.15
2017-11-09T23:28:35.443Z,55.45
2017-11-09T23:31:03.104Z,64.45
2017-11-09T23:33:30.832Z,62.00
2017-11-09T23:35:58.499Z,56.55
2017-11-09T23:38:26.141Z,59.20
2017-11-09T23:40:53.766Z,55.83
2017-11-09T23:43:21.423Z,55.83
2017-11-09T23:45:49.047Z,57.50
2017-11-09T23:48:16.735Z,56.25
2017-11-09T23:50:44.356Z,51.45
2017-11-09T23:53:11.982Z,52.42
2017-11-09T23:55:39.672Z,49.42
2017-11-09T23:58:07.300Z,59.70
